Time,TemperatureF,DewpointF,PressureIn,WindDirection,WindDirectionDegrees,WindSpeedMPH,WindSpeedGustMPH,Humidity,HourlyPrecipIn,Conditions,Clouds,dailyrainin,SoftwareType,DateUTC
2013-10-30 00:01:00,41.2,35.5,30.27,SSE,158,0.0,0.0,80,0.00,,---,0.00,VWS V14.00,2013-10-30 04:01:00,
2013-10-30 00:03:00,41.2,35.5,30.27,SSE,158,0.0,0.0,80,0.00,,---,0.00,VWS V14.00,2013-10-30 04:03:00,
2013-10-30 00:08:00,41.2,35.5,30.24,SSE,158,0.0,0.0,80,0.00,,---,0.00,VWS V14.00,2013-10-30 04:08:00,
2013-10-30 00:13:00,41.2,35.5,30.24,SSE,158,0.0,0.0,80,0.00,,---,0.00,VWS V14.00,2013-10-30 04:13:00,
2013-10-30 00:18:00,41.5,35.8,30.24,SSE,158,0.0,0.0,80,0.00,,---,0.00,VWS V14.00,2013-10-30 04:18:00,
2013-10-30 00:23:00,41.5,35.8,30.24,South,180,1.3,1.3,80,0.00,,---,0.00,VWS V14.00,2013-10-30 04:23:00,
2013-10-30 00:28:00,41.5,36.2,30.24,South,180,0.0,0.0,81,0.00,,---,0.00,VWS V14.00,2013-10-30 04:28:00,
2013-10-30 00:33:00,41.7,36.3,30.24,South,180,1.3,1.3,81,0.00,,---,0.00,VWS V14.00,2013-10-30 04:33:00,
2013-10-30 00:38:00,42.1,36.7,30.24,South,180,0.0,1.1,81,0.00,,---,0.00,VWS V14.00,2013-10-30 04:38:00,
2013-10-30 00:43:00,42.4,37.0,30.24,WNW,292,0.0,0.0,81,0.00,,---,0.00,VWS V14.00,2013-10-30 04:43:00,
2013-10-30 00:48:00,42.8,37.1,30.24,West,270,0.0,0.0,80,0.00,,---,0.00,VWS V14.00,2013-10-30 04:48:00,
2013-10-30 00:54:00,43.2,37.4,30.24,SSW,202,0.0,0.0,80,0.00,,---,0.00,VWS V14.00,2013-10-30 04:54:00,
2013-10-30 00:59:00,43.3,37.6,30.24,SSW,202,0.0,0.0,80,0.00,,---,0.00,VWS V14.00,2013-10-30 04:59:00,
2013-10-30 01:04:00,43.5,37.8,30.24,SSW,202,0.0,0.0,80,0.00,,---,0.00,VWS V14.00,2013-10-30 05:04:00,
2013-10-30 01:09:00,43.7,38.0,30.24,South,180,0.0,0.0,80,0.00,,---,0.00,VWS V14.00,2013-10-30 05:09:00,
2013-10-30 01:14:00,43.9,37.8,30.24,NE,45,0.0,0.0,79,0.00,,---,0.00,VWS V14.00,2013-10-30 05:14:00,
2013-10-30 01:19:00,43.9,37.8,30.21,SSE,158,0.0,0.9,79,0.00,,---,0.00,VWS V14.00,2013-10-30 05:19:00,
2013-10-30 01:24:00,44.1,37.7,30.21,SE,135,0.0,0.0,78,0.00,,---,0.00,VWS V14.00,2013-10-30 05:24:00,
2013-10-30 01:29:00,44.1,37.7,30.21,SE,135,0.0,0.0,78,0.00,,---,0.00,VWS V14.00,2013-10-30 05:29:00,
2013-10-30 01:34:00,44.1,37.7,30.21,SSE,158,0.0,0.0,78,0.00,,---,0.00,VWS V14.00,2013-10-30 05:34:00,
2013-10-30 01:39:00,44.1,37.7,30.21,South,180,1.6,1.6,78,0.00,,---,0.00,VWS V14.00,2013-10-30 05:39:00,
2013-10-30 01:44:00,44.1,37.7,30.21,South,180,0.9,0.9,78,0.00,,---,0.00,VWS V14.00,2013-10-30 05:44:00,
2013-10-30 01:49:00,44.1,37.7,30.21,South,180,0.0,0.0,78,0.00,,---,0.00,VWS V14.00,2013-10-30 05:49:00,
2013-10-30 01:54:00,44.1,37.7,30.21,South,180,1.1,1.1,78,0.00,,---,0.00,VWS V14.00,2013-10-30 05:54:00,
2013-10-30 01:59:00,44.1,37.7,30.21,South,180,0.0,0.0,78,0.00,,---,0.00,VWS V14.00,2013-10-30 05:59:00,
2013-10-30 02:04:00,44.1,37.3,30.21,South,180,0.0,0.0,77,0.00,,---,0.00,VWS V14.00,2013-10-30 06:04:00,
2013-10-30 02:10:00,44.2,37.8,30.21,South,180,0.0,0.0,78,0.00,,---,0.00,VWS V14.00,2013-10-30 06:10:00,
2013-10-30 02:15:00,44.2,37.8,30.21,South,180,0.0,0.0,78,0.00,,---,0.00,VWS V14.00,2013-10-30 06:15:00,
2013-10-30 02:20:00,44.2,37.8,30.21,South,180,0.0,0.0,78,0.00,,---,0.00,VWS V14.00,2013-10-30 06:20:00,
2013-10-30 02:25:00,44.2,37.8,30.21,SE,135,0.0,0.0,78,0.00,,---,0.00,VWS V14.00,2013-10-30 06:25:00,
2013-10-30 02:30:00,44.2,37.8,30.21,SSE,158,0.0,0.0,78,0.00,,---,0.00,VWS V14.00,2013-10-30 06:30:00,
2013-10-30 02:35:00,44.2,37.8,30.21,SSE,158,0.0,0.0,78,0.00,,---,0.00,VWS V14.00,2013-10-30 06:35:00,
2013-10-30 02:40:00,44.2,37.8,30.21,South,180,1.6,1.6,78,0.00,,---,0.00,VWS V14.00,2013-10-30 06:40:00,
2013-10-30 02:45:00,44.2,37.8,30.21,SSE,158,0.9,2.0,78,0.00,,---,0.00,VWS V14.00,2013-10-30 06:45:00,
2013-10-30 02:50:00,44.2,37.8,30.21,SSE,158,0.0,0.0,78,0.00,,---,0.00,VWS V14.00,2013-10-30 06:50:00,
2013-10-30 02:55:00,44.2,37.8,30.21,SSE,158,0.0,0.0,78,0.00,,---,0.00,VWS V14.00,2013-10-30 06:55:00,
2013-10-30 03:00:00,44.2,37.8,30.21,SSE,158,0.0,1.6,78,0.00,,---,0.00,VWS V14.00,2013-10-30 07:00:00,
2013-10-30 03:05:00,44.4,38.0,30.21,SSE,158,0.0,0.0,78,0.00,,---,0.00,VWS V14.00,2013-10-30 07:05:00,
2013-10-30 03:10:00,44.4,38.0,30.21,SSE,158,2.0,2.0,78,0.00,,---,0.00,VWS V14.00,2013-10-30 07:10:00,
2013-10-30 03:15:00,44.6,38.2,30.21,South,180,1.3,1.3,78,0.00,,---,0.00,VWS V14.00,2013-10-30 07:15:00,
2013-10-30 03:20:00,44.6,38.2,30.21,SSE,158,1.1,1.6,78,0.00,,---,0.00,VWS V14.00,2013-10-30 07:20:00,
2013-10-30 03:25:00,44.6,38.5,30.21,SSE,158,1.1,1.3,79,0.00,,---,0.00,VWS V14.00,2013-10-30 07:25:00,
2013-10-30 03:30:00,44.8,38.3,30.21,ENE,68,0.0,0.0,78,0.00,,---,0.00,VWS V14.00,2013-10-30 07:30:00,
2013-10-30 03:35:00,44.8,38.3,30.21,NNE,22,0.0,0.0,78,0.00,,---,0.00,VWS V14.00,2013-10-30 07:35:00,
2013-10-30 03:41:00,44.8,38.7,30.21,South,180,0.0,0.0,79,0.00,,---,0.00,VWS V14.00,2013-10-30 07:41:00,
2013-10-30 03:46:00,45.0,38.5,30.21,South,180,0.0,0.0,78,0.00,,---,0.00,VWS V14.00,2013-10-30 07:46:00,
2013-10-30 03:51:00,45.0,38.5,30.18,South,180,0.0,0.0,78,0.00,,---,0.00,VWS V14.00,2013-10-30 07:51:00,
2013-10-30 03:56:00,45.0,38.5,30.18,South,180,0.0,0.0,78,0.00,,---,0.00,VWS V14.00,2013-10-30 07:56:00,
2013-10-30 04:01:00,45.0,38.5,30.18,South,180,0.0,0.0,78,0.00,,---,0.00,VWS V14.00,2013-10-30 08:01:00,
2013-10-30 04:06:00,44.8,38.3,30.18,South,180,0.0,0.0,78,0.00,,---,0.00,VWS V14.00,2013-10-30 08:06:00,
2013-10-30 04:11:00,44.6,38.2,30.18,South,180,0.0,0.0,78,0.00,,---,0.00,VWS V14.00,2013-10-30 08:11:00,
2013-10-30 04:16:00,44.6,38.5,30.18,South,180,0.0,0.0,79,0.00,,---,0.00,VWS V14.00,2013-10-30 08:16:00,
2013-10-30 04:21:00,44.4,38.3,30.18,South,180,0.0,0.0,79,0.00,,---,0.00,VWS V14.00,2013-10-30 08:21:00,
2013-10-30 04:26:00,44.2,38.5,30.18,South,180,0.0,0.0,80,0.00,,---,0.00,VWS V14.00,2013-10-30 08:26:00,
2013-10-30 04:31:00,44.4,38.7,30.18,South,180,0.0,0.0,80,0.00,,---,0.00,VWS V14.00,2013-10-30 08:31:00,
2013-10-30 04:36:00,44.4,38.7,30.18,South,180,0.0,0.0,80,0.00,,---,0.00,VWS V14.00,2013-10-30 08:36:00,
2013-10-30 04:41:00,44.6,38.8,30.18,South,180,0.0,0.0,80,0.00,,---,0.00,VWS V14.00,2013-10-30 08:41:00,
2013-10-30 04:46:00,44.6,38.8,30.18,South,180,0.0,0.0,80,0.00,,---,0.00,VWS V14.00,2013-10-30 08:46:00,
2013-10-30 04:51:00,44.6,39.1,30.18,South,180,1.1,1.3,81,0.00,,---,0.00,VWS V14.00,2013-10-30 08:51:00,
2013-10-30 04:56:00,44.8,39.3,30.18,South,180,1.1,1.1,81,0.00,,---,0.00,VWS V14.00,2013-10-30 08:56:00,
2013-10-30 05:02:00,44.8,39.0,30.18,South,180,0.0,0.0,80,0.00,,---,0.00,VWS V14.00,2013-10-30 09:02:00,
2013-10-30 05:07:00,44.8,39.0,30.18,SSE,158,0.0,0.0,80,0.00,,---,0.00,VWS V14.00,2013-10-30 09:07:00,
2013-10-30 05:12:00,45.0,39.2,30.18,SSE,158,0.0,0.0,80,0.00,,---,0.00,VWS V14.00,2013-10-30 09:12:00,
2013-10-30 05:17:00,45.0,39.2,30.18,SSE,158,0.0,0.0,80,0.00,,---,0.00,VWS V14.00,2013-10-30 09:17:00,
2013-10-30 05:22:00,45.0,39.2,30.18,SSE,158,0.0,0.0,80,0.00,,---,0.00,VWS V14.00,2013-10-30 09:22:00,
2013-10-30 05:27:00,45.0,39.2,30.18,SSE,158,0.0,0.0,80,0.00,,---,0.00,VWS V14.00,2013-10-30 09:27:00,
2013-10-30 05:32:00,45.1,39.3,30.18,SSE,158,0.0,0.0,80,0.00,,---,0.00,VWS V14.00,2013-10-30 09:32:00,
2013-10-30 05:37:00,45.1,39.3,30.18,SSE,158,0.0,0.0,80,0.00,,---,0.00,VWS V14.00,2013-10-30 09:37:00,
2013-10-30 05:42:00,45.1,39.3,30.18,SSE,158,0.0,0.0,80,0.00,,---,0.00,VWS V14.00,2013-10-30 09:42:00,
2013-10-30 05:47:00,45.0,39.2,30.18,SSE,158,0.0,0.0,80,0.00,,---,0.00,VWS V14.00,2013-10-30 09:47:00,
2013-10-30 05:52:00,44.8,39.0,30.18,SSE,158,0.0,0.0,80,0.00,,---,0.00,VWS V14.00,2013-10-30 09:52:00,
2013-10-30 05:57:00,44.6,38.8,30.18,SSE,158,0.0,0.0,80,0.00,,---,0.00,VWS V14.00,2013-10-30 09:57:00,
2013-10-30 06:02:00,44.6,38.8,30.18,SSE,158,1.3,1.6,80,0.00,,---,0.00,VWS V14.00,2013-10-30 10:02:00,
2013-10-30 06:07:00,44.4,39.0,30.18,SSE,158,0.0,0.0,81,0.00,,---,0.00,VWS V14.00,2013-10-30 10:07:00,
2013-10-30 06:12:00,44.1,38.6,30.18,SSE,158,0.0,0.0,81,0.00,,---,0.00,VWS V14.00,2013-10-30 10:12:00,
2013-10-30 06:17:00,43.7,38.3,30.18,SSE,158,0.0,0.0,81,0.00,,---,0.00,VWS V14.00,2013-10-30 10:17:00,
2013-10-30 06:23:00,43.5,38.4,30.18,SSE,158,0.0,0.0,82,0.00,,---,0.00,VWS V14.00,2013-10-30 10:23:00,
2013-10-30 06:28:00,43.2,38.0,30.18,SSE,158,0.0,0.0,82,0.00,,---,0.00,VWS V14.00,2013-10-30 10:28:00,
2013-10-30 06:33:00,43.0,37.9,30.18,SSE,158,0.0,0.0,82,0.00,,---,0.00,VWS V14.00,2013-10-30 10:33:00,
2013-10-30 06:38:00,42.8,38.0,30.18,SSE,158,0.0,0.0,83,0.00,,---,0.00,VWS V14.00,2013-10-30 10:38:00,
2013-10-30 06:43:00,42.4,37.7,30.18,SSE,158,0.0,0.0,83,0.00,,---,0.00,VWS V14.00,2013-10-30 10:43:00,
2013-10-30 06:48:00,42.3,37.8,30.21,SSE,158,0.0,0.0,84,0.00,,---,0.00,VWS V14.00,2013-10-30 10:48:00,
2013-10-30 06:53:00,42.3,37.8,30.21,SSE,158,0.0,0.0,84,0.00,,---,0.00,VWS V14.00,2013-10-30 10:53:00,
2013-10-30 06:58:00,42.1,37.6,30.21,SSE,158,0.0,0.0,84,0.00,,---,0.00,VWS V14.00,2013-10-30 10:58:00,
2013-10-30 07:03:00,41.9,37.4,30.18,SSE,158,0.0,0.0,84,0.00,,---,0.00,VWS V14.00,2013-10-30 11:03:00,
2013-10-30 07:08:00,41.7,37.2,30.18,SSE,158,0.0,0.0,84,0.00,,---,0.00,VWS V14.00,2013-10-30 11:08:00,
2013-10-30 07:13:00,41.7,37.5,30.18,SSE,158,0.0,0.0,85,0.00,,---,0.00,VWS V14.00,2013-10-30 11:13:00,
2013-10-30 07:18:00,41.5,37.4,30.18,SSE,158,0.0,0.0,85,0.00,,---,0.00,VWS V14.00,2013-10-30 11:18:00,
2013-10-30 07:23:00,41.2,37.0,30.18,SSE,158,0.0,0.0,85,0.00,,---,0.00,VWS V14.00,2013-10-30 11:23:00,
2013-10-30 07:28:00,41.2,37.0,30.18,SSE,158,0.0,0.0,85,0.00,,---,0.00,VWS V14.00,2013-10-30 11:28:00,
2013-10-30 07:33:00,41.0,37.1,30.18,SSE,158,0.0,0.0,86,0.00,,---,0.00,VWS V14.00,2013-10-30 11:33:00,
2013-10-30 07:38:00,40.8,37.0,30.18,SSE,158,0.0,0.0,86,0.00,,---,0.00,VWS V14.00,2013-10-30 11:38:00,
2013-10-30 07:43:00,40.8,37.0,30.18,SSE,158,0.0,0.0,86,0.00,,---,0.00,VWS V14.00,2013-10-30 11:43:00,
2013-10-30 07:49:00,40.8,37.3,30.21,SSE,158,0.0,0.0,87,0.00,,---,0.00,VWS V14.00,2013-10-30 11:49:00,
2013-10-30 07:54:00,40.8,37.3,30.21,SSE,158,0.0,0.0,87,0.00,,---,0.00,VWS V14.00,2013-10-30 11:54:00,
2013-10-30 07:59:00,40.6,37.1,30.21,SSE,158,0.0,0.0,87,0.00,,---,0.00,VWS V14.00,2013-10-30 11:59:00,
2013-10-30 08:04:00,40.5,36.9,30.21,SSE,158,0.0,0.0,87,0.00,,---,0.00,VWS V14.00,2013-10-30 12:04:00,
2013-10-30 08:09:00,40.5,36.9,30.21,SSE,158,0.0,0.0,87,0.00,,---,0.00,VWS V14.00,2013-10-30 12:09:00,
2013-10-30 08:14:00,40.5,36.9,30.21,SSE,158,0.0,0.0,87,0.00,,---,0.00,VWS V14.00,2013-10-30 12:14:00,
2013-10-30 08:19:00,40.3,36.7,30.21,SSE,158,0.0,0.0,87,0.00,,---,0.00,VWS V14.00,2013-10-30 12:19:00,
2013-10-30 08:24:00,40.1,36.5,30.21,SSE,158,0.0,0.0,87,0.00,,---,0.00,VWS V14.00,2013-10-30 12:24:00,
2013-10-30 08:29:00,40.1,36.5,30.21,SSE,158,0.0,0.0,87,0.00,,---,0.00,VWS V14.00,2013-10-30 12:29:00,
2013-10-30 08:34:00,39.9,36.4,30.21,SSE,158,0.0,0.0,87,0.00,,---,0.00,VWS V14.00,2013-10-30 12:34:00,
2013-10-30 08:39:00,40.1,36.5,30.21,SSE,158,0.0,0.0,87,0.00,,---,0.00,VWS V14.00,2013-10-30 12:39:00,
2013-10-30 08:44:00,40.3,37.0,30.21,SSE,158,0.0,0.0,88,0.00,,---,0.00,VWS V14.00,2013-10-30 12:44:00,
2013-10-30 08:49:00,40.3,37.0,30.21,SSE,158,0.0,0.0,88,0.00,,---,0.00,VWS V14.00,2013-10-30 12:49:00,
2013-10-30 08:54:00,40.6,37.7,30.21,SSE,158,0.0,0.0,89,0.00,,---,0.00,VWS V14.00,2013-10-30 12:54:00,
2013-10-30 08:59:00,41.0,38.0,30.21,SSE,158,0.0,0.0,89,0.00,,---,0.00,VWS V14.00,2013-10-30 12:59:00,
2013-10-30 09:04:00,41.4,38.4,30.21,South,180,0.0,0.0,89,0.00,,---,0.00,VWS V14.00,2013-10-30 13:04:00,
2013-10-30 09:10:00,41.7,38.7,30.21,South,180,0.0,1.1,89,0.00,,---,0.00,VWS V14.00,2013-10-30 13:10:00,
2013-10-30 09:15:00,42.1,39.1,30.21,South,180,2.0,2.0,89,0.00,,---,0.00,VWS V14.00,2013-10-30 13:15:00,
2013-10-30 09:20:00,42.3,39.3,30.21,South,180,0.0,0.0,89,0.00,,---,0.00,VWS V14.00,2013-10-30 13:20:00,
2013-10-30 09:25:00,42.8,39.5,30.21,South,180,0.0,0.0,88,0.00,,---,0.00,VWS V14.00,2013-10-30 13:25:00,
2013-10-30 09:30:00,43.2,39.8,30.21,SSE,158,1.6,2.5,88,0.00,,---,0.00,VWS V14.00,2013-10-30 13:30:00,
2013-10-30 09:35:00,43.7,40.4,30.21,SSE,158,0.0,0.0,88,0.00,,---,0.00,VWS V14.00,2013-10-30 13:35:00,
2013-10-30 09:40:00,44.2,40.6,30.21,South,180,1.3,2.0,87,0.00,,---,0.00,VWS V14.00,2013-10-30 13:40:00,
2013-10-30 09:45:00,44.6,40.7,30.21,WSW,248,0.0,1.3,86,0.00,,---,0.00,VWS V14.00,2013-10-30 13:45:00,
2013-10-30 09:50:00,45.3,41.4,30.21,SE,135,0.0,2.0,86,0.00,,---,0.00,VWS V14.00,2013-10-30 13:50:00,
2013-10-30 09:55:00,45.9,41.6,30.21,South,180,0.9,0.9,85,0.00,,---,0.00,VWS V14.00,2013-10-30 13:55:00,
2013-10-30 10:00:00,46.2,41.7,30.21,WSW,248,0.9,2.2,84,0.00,,---,0.00,VWS V14.00,2013-10-30 14:00:00,
2013-10-30 10:05:00,46.8,41.9,30.24,SW,225,0.9,0.9,83,0.00,,---,0.00,VWS V14.00,2013-10-30 14:05:00,
2013-10-30 10:10:00,47.3,42.4,30.24,South,180,0.0,1.1,83,0.00,,---,0.00,VWS V14.00,2013-10-30 14:10:00,
2013-10-30 10:15:00,47.7,42.4,30.24,SSE,158,2.7,2.7,82,0.00,,---,0.00,VWS V14.00,2013-10-30 14:15:00,
2013-10-30 10:20:00,48.0,42.5,30.21,SSE,158,1.6,3.4,81,0.00,,---,0.00,VWS V14.00,2013-10-30 14:20:00,
2013-10-30 10:25:00,48.6,42.7,30.21,South,180,2.0,2.0,80,0.00,,---,0.00,VWS V14.00,2013-10-30 14:25:00,
2013-10-30 10:30:00,48.9,42.7,30.21,South,180,1.1,1.1,79,0.00,,---,0.00,VWS V14.00,2013-10-30 14:30:00,
2013-10-30 10:36:00,49.3,43.0,30.21,ENE,68,0.0,0.0,79,0.00,,---,0.00,VWS V14.00,2013-10-30 14:36:00,
2013-10-30 10:41:00,50.0,43.4,30.21,West,270,0.0,1.1,78,0.00,,---,0.00,VWS V14.00,2013-10-30 14:41:00,
2013-10-30 10:46:00,50.4,43.4,30.21,SSE,158,2.5,2.5,77,0.00,,---,0.00,VWS V14.00,2013-10-30 14:46:00,
2013-10-30 10:51:00,50.9,44.0,30.18,SSE,158,2.0,2.0,77,0.00,,---,0.00,VWS V14.00,2013-10-30 14:51:00,
2013-10-30 10:56:00,51.3,44.0,30.18,SSW,202,1.1,1.3,76,0.00,,---,0.00,VWS V14.00,2013-10-30 14:56:00,
2013-10-30 11:01:00,51.8,44.1,30.18,South,180,2.2,2.9,75,0.00,,---,0.00,VWS V14.00,2013-10-30 15:01:00,
2013-10-30 11:06:00,52.3,44.7,30.18,SSE,158,0.0,0.0,75,0.00,,---,0.00,VWS V14.00,2013-10-30 15:06:00,
2013-10-30 11:11:00,52.5,44.5,30.18,SSE,158,1.6,2.2,74,0.00,,---,0.00,VWS V14.00,2013-10-30 15:11:00,
2013-10-30 11:16:00,52.9,44.8,30.18,South,180,3.1,3.1,74,0.00,,---,0.00,VWS V14.00,2013-10-30 15:16:00,
2013-10-30 11:21:00,53.4,45.3,30.18,SSE,158,0.0,0.0,74,0.00,,---,0.00,VWS V14.00,2013-10-30 15:21:00,
2013-10-30 11:26:00,54.1,46.0,30.18,SSE,158,1.3,1.3,74,0.00,,---,0.00,VWS V14.00,2013-10-30 15:26:00,
2013-10-30 11:31:00,54.7,46.6,30.18,SSE,158,1.1,2.0,74,0.00,,---,0.00,VWS V14.00,2013-10-30 15:31:00,
2013-10-30 11:36:00,55.2,46.7,30.18,SE,135,0.0,2.0,73,0.00,,---,0.00,VWS V14.00,2013-10-30 15:36:00,
2013-10-30 11:41:00,55.9,47.1,30.18,South,180,2.9,2.9,72,0.00,,---,0.00,VWS V14.00,2013-10-30 15:41:00,
2013-10-30 11:46:00,56.1,46.1,30.18,SSE,158,2.2,2.9,69,0.00,,---,0.00,VWS V14.00,2013-10-30 15:46:00,
2013-10-30 11:51:00,56.5,47.2,30.18,SSW,202,3.4,3.4,71,0.00,,---,0.00,VWS V14.00,2013-10-30 15:51:00,
2013-10-30 11:56:00,57.0,46.6,30.18,South,180,2.9,2.9,68,0.00,,---,0.00,VWS V14.00,2013-10-30 15:56:00,
2013-10-30 12:01:00,57.6,47.5,30.18,SSE,158,1.6,2.0,69,0.00,,---,0.00,VWS V14.00,2013-10-30 16:01:00,
2013-10-30 12:06:00,58.1,47.6,30.21,SE,135,1.6,1.6,68,0.00,,---,0.00,VWS V14.00,2013-10-30 16:06:00,
2013-10-30 12:12:00,58.3,46.6,30.21,NE,45,1.6,3.4,65,0.00,,---,0.00,VWS V14.00,2013-10-30 16:12:00,
2013-10-30 12:17:00,58.8,47.1,30.21,South,180,1.3,3.4,65,0.00,,---,0.00,VWS V14.00,2013-10-30 16:17:00,
2013-10-30 12:22:00,59.2,47.0,30.18,ESE,112,1.3,1.3,64,0.00,,---,0.00,VWS V14.00,2013-10-30 16:22:00,
2013-10-30 12:27:00,59.5,45.7,30.18,South,180,2.0,2.0,60,0.00,,---,0.00,VWS V14.00,2013-10-30 16:27:00,
2013-10-30 12:32:00,59.9,46.0,30.18,SSE,158,2.5,5.6,60,0.00,,---,0.00,VWS V14.00,2013-10-30 16:32:00,
2013-10-30 12:37:00,60.3,45.0,30.18,SSE,158,2.9,2.9,57,0.00,,---,0.00,VWS V14.00,2013-10-30 16:37:00,
2013-10-30 12:42:00,60.6,43.9,30.18,SW,225,1.6,2.0,54,0.00,,---,0.00,VWS V14.00,2013-10-30 16:42:00,
2013-10-30 12:47:00,61.3,45.0,30.18,South,180,1.3,4.0,55,0.00,,---,0.00,VWS V14.00,2013-10-30 16:47:00,
2013-10-30 12:52:00,61.7,45.9,30.18,SSE,158,2.5,4.0,56,0.00,,---,0.00,VWS V14.00,2013-10-30 16:52:00,
2013-10-30 12:57:00,62.2,45.9,30.18,South,180,1.1,3.6,55,0.00,,---,0.00,VWS V14.00,2013-10-30 16:57:00,
2013-10-30 13:02:00,62.6,45.2,30.18,SSE,158,3.8,3.8,53,0.00,,---,0.00,VWS V14.00,2013-10-30 17:02:00,
2013-10-30 13:07:00,63.1,45.8,30.15,South,180,2.0,2.2,53,0.00,,---,0.00,VWS V14.00,2013-10-30 17:07:00,
2013-10-30 13:12:00,63.5,46.1,30.15,SSW,202,2.9,2.9,53,0.00,,---,0.00,VWS V14.00,2013-10-30 17:12:00,
2013-10-30 13:17:00,63.1,44.2,30.15,SE,135,3.1,3.1,50,0.00,,---,0.00,VWS V14.00,2013-10-30 17:17:00,
2013-10-30 13:22:00,63.7,45.2,30.12,SSW,202,0.9,2.0,51,0.00,,---,0.00,VWS V14.00,2013-10-30 17:22:00,
2013-10-30 13:27:00,64.0,45.0,30.12,SSW,202,1.1,4.9,50,0.00,,---,0.00,VWS V14.00,2013-10-30 17:27:00,
2013-10-30 13:32:00,64.2,43.6,30.12,West,270,2.0,2.9,47,0.00,,---,0.00,VWS V14.00,2013-10-30 17:32:00,
2013-10-30 13:37:00,64.2,43.0,30.12,SSE,158,3.4,3.4,46,0.00,,---,0.00,VWS V14.00,2013-10-30 17:37:00,
2013-10-30 13:42:00,63.1,42.6,30.12,SW,225,0.9,2.5,47,0.00,,---,0.00,VWS V14.00,2013-10-30 17:42:00,
2013-10-30 13:47:00,63.1,42.0,30.12,South,180,4.9,4.9,46,0.00,,---,0.00,VWS V14.00,2013-10-30 17:47:00,
2013-10-30 13:52:00,63.5,42.9,30.12,South,180,4.3,4.3,47,0.00,,---,0.00,VWS V14.00,2013-10-30 17:52:00,
2013-10-30 13:58:00,63.9,42.7,30.12,SE,135,4.0,7.4,46,0.00,,---,0.00,VWS V14.00,2013-10-30 17:58:00,
2013-10-30 14:03:00,64.9,44.2,30.12,WSW,248,1.3,3.1,47,0.00,,---,0.00,VWS V14.00,2013-10-30 18:03:00,
2013-10-30 14:08:00,64.9,43.7,30.12,SSE,158,2.7,3.4,46,0.00,,---,0.00,VWS V14.00,2013-10-30 18:08:00,
2013-10-30 14:13:00,64.2,43.6,30.12,SSE,158,4.3,4.3,47,0.00,,---,0.00,VWS V14.00,2013-10-30 18:13:00,
2013-10-30 14:18:00,63.3,42.8,30.12,SSE,158,0.9,2.0,47,0.00,,---,0.00,VWS V14.00,2013-10-30 18:18:00,
2013-10-30 14:23:00,63.0,42.4,30.12,ENE,68,1.3,2.0,47,0.00,,---,0.00,VWS V14.00,2013-10-30 18:23:00,
2013-10-30 14:28:00,63.0,43.5,30.12,South,180,3.4,3.4,49,0.00,,---,0.00,VWS V14.00,2013-10-30 18:28:00,
2013-10-30 14:33:00,62.6,42.7,30.09,SSW,202,1.6,5.4,48,0.00,,---,0.00,VWS V14.00,2013-10-30 18:33:00,
2013-10-30 14:38:00,62.8,43.9,30.09,SSE,158,1.6,2.7,50,0.00,,---,0.00,VWS V14.00,2013-10-30 18:38:00,
2013-10-30 14:43:00,63.0,44.6,30.09,WSW,248,1.3,1.3,51,0.00,,---,0.00,VWS V14.00,2013-10-30 18:43:00,
2013-10-30 14:48:00,63.0,44.6,30.06,West,270,1.6,3.6,51,0.00,,---,0.00,VWS V14.00,2013-10-30 18:48:00,
2013-10-30 14:53:00,63.0,44.6,30.06,South,180,2.0,2.5,51,0.00,,---,0.00,VWS V14.00,2013-10-30 18:53:00,
2013-10-30 14:58:00,63.0,45.1,30.06,SSE,158,2.5,2.9,52,0.00,,---,0.00,VWS V14.00,2013-10-30 18:58:00,
2013-10-30 15:03:00,62.6,44.2,30.06,South,180,2.5,4.3,51,0.00,,---,0.00,VWS V14.00,2013-10-30 19:03:00,
2013-10-30 15:08:00,62.4,44.6,30.06,SSE,158,2.5,2.5,52,0.00,,---,0.00,VWS V14.00,2013-10-30 19:08:00,
2013-10-30 15:13:00,62.4,45.1,30.06,North,0,2.7,3.6,53,0.00,,---,0.00,VWS V14.00,2013-10-30 19:13:00,
2013-10-30 15:18:00,62.2,44.9,30.06,South,180,2.5,2.7,53,0.00,,---,0.00,VWS V14.00,2013-10-30 19:18:00,
2013-10-30 15:23:00,62.2,45.4,30.06,NE,45,1.1,1.1,54,0.00,,---,0.00,VWS V14.00,2013-10-30 19:23:00,
2013-10-30 15:28:00,62.1,45.7,30.06,SE,135,2.9,4.0,55,0.00,,---,0.00,VWS V14.00,2013-10-30 19:28:00,
2013-10-30 15:33:00,62.1,46.2,30.06,SSW,202,0.0,2.2,56,0.00,,---,0.00,VWS V14.00,2013-10-30 19:33:00,
2013-10-30 15:38:00,61.9,46.5,30.06,South,180,2.2,2.9,57,0.00,,---,0.00,VWS V14.00,2013-10-30 19:38:00,
2013-10-30 15:43:00,61.9,47.0,30.06,NW,315,1.1,3.8,58,0.00,,---,0.00,VWS V14.00,2013-10-30 19:43:00,
2013-10-30 15:48:00,61.7,46.8,30.09,SW,225,0.0,1.1,58,0.00,,---,0.00,VWS V14.00,2013-10-30 19:48:00,
2013-10-30 15:53:00,61.7,47.2,30.09,South,180,2.9,2.9,59,0.00,,---,0.00,VWS V14.00,2013-10-30 19:53:00,
2013-10-30 15:58:00,61.3,47.8,30.09,ESE,112,3.1,3.1,61,0.00,,---,0.00,VWS V14.00,2013-10-30 19:58:00,
2013-10-30 16:03:00,61.3,48.7,30.09,SSW,202,0.0,1.6,63,0.00,,---,0.00,VWS V14.00,2013-10-30 20:03:00,
2013-10-30 16:08:00,61.2,48.9,30.09,SW,225,0.0,1.1,64,0.00,,---,0.00,VWS V14.00,2013-10-30 20:08:00,
2013-10-30 16:13:00,61.0,48.7,30.09,ESE,112,1.3,1.6,64,0.00,,---,0.00,VWS V14.00,2013-10-30 20:13:00,
2013-10-30 16:18:00,61.0,49.2,30.06,WSW,248,0.0,0.9,65,0.00,,---,0.00,VWS V14.00,2013-10-30 20:18:00,
2013-10-30 16:23:00,61.0,49.2,30.06,SSW,202,0.0,2.0,65,0.00,,---,0.00,VWS V14.00,2013-10-30 20:23:00,
2013-10-30 16:28:00,61.0,49.2,30.06,South,180,1.1,2.7,65,0.00,,---,0.00,VWS V14.00,2013-10-30 20:28:00,
2013-10-30 16:33:00,60.8,49.4,30.06,SE,135,1.6,2.7,66,0.00,,---,0.00,VWS V14.00,2013-10-30 20:33:00,
2013-10-30 16:38:00,60.8,49.8,30.06,SSE,158,2.9,2.9,67,0.00,,---,0.00,VWS V14.00,2013-10-30 20:38:00,
2013-10-30 16:43:00,60.8,49.4,30.06,SSW,202,0.9,0.9,66,0.00,,---,0.00,VWS V14.00,2013-10-30 20:43:00,
2013-10-30 16:48:00,60.8,49.8,30.06,SSW,202,1.6,3.1,67,0.00,,---,0.00,VWS V14.00,2013-10-30 20:48:00,
2013-10-30 16:53:00,60.6,50.0,30.06,SSE,158,2.5,2.5,68,0.00,,---,0.00,VWS V14.00,2013-10-30 20:53:00,
2013-10-30 16:58:00,60.6,50.0,30.06,West,270,2.7,3.8,68,0.00,,---,0.00,VWS V14.00,2013-10-30 20:58:00,
2013-10-30 17:03:00,60.6,50.0,30.06,SSE,158,1.6,1.6,68,0.00,,---,0.00,VWS V14.00,2013-10-30 21:03:00,
2013-10-30 17:08:00,60.6,50.0,30.06,NNE,22,1.3,1.3,68,0.00,,---,0.00,VWS V14.00,2013-10-30 21:08:00,
2013-10-30 17:13:00,60.6,50.0,30.06,NNE,22,1.1,1.3,68,0.00,,---,0.00,VWS V14.00,2013-10-30 21:13:00,
2013-10-30 17:18:00,60.6,50.4,30.06,South,180,2.5,3.6,69,0.00,,---,0.00,VWS V14.00,2013-10-30 21:18:00,
2013-10-30 17:23:00,60.4,49.8,30.06,East,90,2.7,2.7,68,0.00,,---,0.00,VWS V14.00,2013-10-30 21:23:00,
2013-10-30 17:28:00,60.4,49.8,30.06,South,180,3.4,3.4,68,0.00,,---,0.00,VWS V14.00,2013-10-30 21:28:00,
2013-10-30 17:33:00,60.3,49.7,30.06,SSW,202,2.2,2.2,68,0.00,,---,0.00,VWS V14.00,2013-10-30 21:33:00,
2013-10-30 17:38:00,60.1,49.5,30.06,SSE,158,2.7,3.6,68,0.00,,---,0.00,VWS V14.00,2013-10-30 21:38:00,
2013-10-30 17:43:00,60.1,49.9,30.06,SSW,202,0.9,1.3,69,0.00,,---,0.00,VWS V14.00,2013-10-30 21:43:00,
2013-10-30 17:48:00,59.9,49.7,30.06,SW,225,0.9,1.1,69,0.00,,---,0.00,VWS V14.00,2013-10-30 21:48:00,
2013-10-30 17:53:00,59.7,49.5,30.06,SE,135,1.3,1.3,69,0.00,,---,0.00,VWS V14.00,2013-10-30 21:53:00,
2013-10-30 17:58:00,59.7,49.5,30.06,SSE,158,0.0,0.0,69,0.00,,---,0.00,VWS V14.00,2013-10-30 21:58:00,
2013-10-30 18:03:00,59.5,49.8,30.03,SSE,158,0.0,2.0,70,0.00,,---,0.00,VWS V14.00,2013-10-30 22:03:00,
2013-10-30 18:08:00,59.5,49.8,30.03,South,180,0.0,1.6,70,0.00,,---,0.00,VWS V14.00,2013-10-30 22:08:00,
2013-10-30 18:13:00,59.4,49.6,30.03,South,180,3.4,3.4,70,0.00,,---,0.00,VWS V14.00,2013-10-30 22:13:00,
2013-10-30 18:18:00,59.4,49.6,30.03,SSE,158,2.2,2.2,70,0.00,,---,0.00,VWS V14.00,2013-10-30 22:18:00,
2013-10-30 18:23:00,59.4,50.0,30.03,NW,315,1.6,2.5,71,0.00,,---,0.00,VWS V14.00,2013-10-30 22:23:00,
2013-10-30 18:28:00,59.4,50.0,30.03,South,180,1.3,1.6,71,0.00,,---,0.00,VWS V14.00,2013-10-30 22:28:00,
2013-10-30 18:34:00,59.2,49.8,30.00,South,180,1.3,1.3,71,0.00,,---,0.00,VWS V14.00,2013-10-30 22:34:00,
2013-10-30 18:39:00,59.2,49.8,30.00,South,180,2.0,2.0,71,0.00,,---,0.00,VWS V14.00,2013-10-30 22:39:00,
2013-10-30 18:44:00,59.0,49.6,30.00,South,180,0.0,0.9,71,0.00,,---,0.00,VWS V14.00,2013-10-30 22:44:00,
2013-10-30 18:49:00,59.0,49.6,30.00,South,180,2.9,3.1,71,0.00,,---,0.00,VWS V14.00,2013-10-30 22:49:00,
2013-10-30 18:54:00,58.8,49.8,30.00,SSE,158,1.1,1.1,72,0.00,,---,0.00,VWS V14.00,2013-10-30 22:54:00,
2013-10-30 18:59:00,58.8,49.8,30.00,SW,225,1.1,2.2,72,0.00,,---,0.00,VWS V14.00,2013-10-30 22:59:00,
2013-10-30 19:04:00,58.8,49.8,30.00,SE,135,2.7,3.4,72,0.00,,---,0.00,VWS V14.00,2013-10-30 23:04:00,
2013-10-30 19:09:00,58.8,49.8,30.00,SE,135,2.0,2.0,72,0.00,,---,0.00,VWS V14.00,2013-10-30 23:09:00,
2013-10-30 19:14:00,58.8,50.2,30.00,South,180,0.0,1.3,73,0.00,,---,0.00,VWS V14.00,2013-10-30 23:14:00,
2013-10-30 19:19:00,58.6,50.0,30.00,SE,135,0.0,1.3,73,0.00,,---,0.00,VWS V14.00,2013-10-30 23:19:00,
2013-10-30 19:24:00,58.6,50.0,30.00,South,180,0.0,0.0,73,0.00,,---,0.00,VWS V14.00,2013-10-30 23:24:00,
2013-10-30 19:29:00,58.6,50.0,30.00,SE,135,1.1,2.0,73,0.00,,---,0.00,VWS V14.00,2013-10-30 23:29:00,
2013-10-30 19:34:00,58.6,50.0,30.00,South,180,0.0,0.9,73,0.00,,---,0.00,VWS V14.00,2013-10-30 23:34:00,
2013-10-30 19:39:00,58.6,50.0,30.00,SE,135,1.1,1.1,73,0.00,,---,0.00,VWS V14.00,2013-10-30 23:39:00,
2013-10-30 19:44:00,58.6,50.0,30.00,SE,135,0.9,0.9,73,0.00,,---,0.00,VWS V14.00,2013-10-30 23:44:00,
2013-10-30 19:49:00,58.6,50.4,30.00,East,90,1.1,3.1,74,0.00,,---,0.00,VWS V14.00,2013-10-30 23:49:00,
2013-10-30 19:54:00,58.6,50.0,30.00,SE,135,1.1,2.2,73,0.00,,---,0.00,VWS V14.00,2013-10-30 23:54:00,
2013-10-30 19:59:00,58.6,50.4,30.00,ESE,112,2.5,2.5,74,0.00,,---,0.00,VWS V14.00,2013-10-30 23:59:00,
2013-10-30 20:04:00,58.5,49.8,30.00,ENE,68,0.9,0.9,73,0.00,,---,0.00,VWS V14.00,2013-10-31 00:04:00,
2013-10-30 20:09:00,57.9,50.0,30.00,SSE,158,2.5,2.5,75,0.00,,---,0.00,VWS V14.00,2013-10-31 00:09:00,
2013-10-30 20:15:00,57.4,50.6,30.00,SSE,158,0.0,0.0,78,0.00,,---,0.00,VWS V14.00,2013-10-31 00:15:00,
2013-10-30 20:20:00,56.8,50.4,29.97,SE,135,0.0,0.0,79,0.04,,---,0.04,VWS V14.00,2013-10-31 00:20:00,
2013-10-30 20:25:00,56.7,50.6,29.97,NE,45,0.0,0.0,80,0.04,,---,0.04,VWS V14.00,2013-10-31 00:25:00,
2013-10-30 20:30:00,56.3,50.9,29.97,West,270,0.0,0.0,82,0.04,,---,0.04,VWS V14.00,2013-10-31 00:30:00,
2013-10-30 20:35:00,56.1,51.0,29.97,SSE,158,0.0,0.0,83,0.04,,---,0.04,VWS V14.00,2013-10-31 00:35:00,
2013-10-30 20:40:00,55.9,50.9,29.97,SSE,158,0.0,0.0,83,0.04,,---,0.04,VWS V14.00,2013-10-31 00:40:00,
2013-10-30 20:45:00,55.9,51.2,29.97,SSE,158,0.0,0.0,84,0.04,,---,0.04,VWS V14.00,2013-10-31 00:45:00,
2013-10-30 20:50:00,55.8,51.0,29.94,South,180,0.0,0.0,84,0.04,,---,0.04,VWS V14.00,2013-10-31 00:50:00,
2013-10-30 20:55:00,55.8,51.3,29.94,South,180,0.0,0.0,85,0.04,,---,0.04,VWS V14.00,2013-10-31 00:55:00,
2013-10-30 21:00:00,55.8,51.3,29.94,South,180,0.0,0.0,85,0.04,,---,0.04,VWS V14.00,2013-10-31 01:00:00,
2013-10-30 21:05:00,55.8,51.6,29.94,South,180,0.0,0.0,86,0.04,,---,0.04,VWS V14.00,2013-10-31 01:05:00,
2013-10-30 21:11:00,55.8,52.0,29.94,South,180,0.0,0.0,87,0.04,,---,0.04,VWS V14.00,2013-10-31 01:11:00,
2013-10-30 21:16:00,55.9,52.4,29.94,SE,135,0.0,0.0,88,0.04,,---,0.04,VWS V14.00,2013-10-31 01:16:00,
2013-10-30 21:21:00,55.9,52.4,29.94,SE,135,0.0,0.0,88,0.00,,---,0.04,VWS V14.00,2013-10-31 01:21:00,
2013-10-30 21:26:00,55.9,52.4,29.94,SE,135,0.0,0.0,88,0.00,,---,0.04,VWS V14.00,2013-10-31 01:26:00,
2013-10-30 21:31:00,55.9,52.8,29.94,SSE,158,0.0,0.0,89,0.00,,---,0.04,VWS V14.00,2013-10-31 01:31:00,
2013-10-30 21:36:00,55.9,53.0,29.94,SSE,158,0.0,0.0,90,0.00,,---,0.04,VWS V14.00,2013-10-31 01:36:00,
2013-10-30 21:41:00,55.9,53.0,29.94,South,180,0.0,3.6,90,0.00,,---,0.04,VWS V14.00,2013-10-31 01:41:00,
2013-10-30 21:46:00,55.9,53.0,29.94,NE,45,0.0,0.0,90,0.00,,---,0.04,VWS V14.00,2013-10-31 01:46:00,
2013-10-30 21:51:00,56.1,53.2,29.91,ESE,112,0.0,0.0,90,0.04,,---,0.08,VWS V14.00,2013-10-31 01:51:00,
2013-10-30 21:56:00,56.1,53.5,29.91,SSW,202,0.0,0.0,91,0.04,,---,0.08,VWS V14.00,2013-10-31 01:56:00,
2013-10-30 22:01:00,56.3,54.0,29.91,SSE,158,0.0,0.0,92,0.04,,---,0.08,VWS V14.00,2013-10-31 02:01:00,
2013-10-30 22:07:00,56.3,53.7,29.94,South,180,0.0,2.0,91,0.04,,---,0.08,VWS V14.00,2013-10-31 02:07:00,
2013-10-30 22:12:00,56.3,53.7,29.94,WSW,248,0.0,0.0,91,0.04,,---,0.08,VWS V14.00,2013-10-31 02:12:00,
2013-10-30 22:17:00,56.3,54.0,29.94,South,180,0.0,0.0,92,0.04,,---,0.08,VWS V14.00,2013-10-31 02:17:00,
2013-10-30 22:22:00,56.3,54.3,29.94,SSE,158,0.0,1.3,93,0.04,,---,0.08,VWS V14.00,2013-10-31 02:22:00,
2013-10-30 22:27:00,56.3,54.3,29.94,SE,135,0.0,0.9,93,0.04,,---,0.08,VWS V14.00,2013-10-31 02:27:00,
2013-10-30 22:32:00,56.3,54.6,29.94,SE,135,0.0,0.0,94,0.04,,---,0.08,VWS V14.00,2013-10-31 02:32:00,
2013-10-30 22:37:00,56.3,54.6,29.94,SSE,158,0.0,0.0,94,0.08,,---,0.12,VWS V14.00,2013-10-31 02:37:00,
2013-10-30 22:42:00,56.3,54.6,29.94,SSE,158,1.1,2.2,94,0.08,,---,0.12,VWS V14.00,2013-10-31 02:42:00,
2013-10-30 22:47:00,56.3,54.9,29.94,SSE,158,0.0,0.0,95,0.08,,---,0.12,VWS V14.00,2013-10-31 02:47:00,
2013-10-30 22:52:00,56.3,54.9,29.94,SSW,202,2.0,2.0,95,0.08,,---,0.16,VWS V14.00,2013-10-31 02:52:00,
2013-10-30 22:57:00,56.3,54.6,29.94,SSW,202,0.0,0.0,94,0.13,,---,0.21,VWS V14.00,2013-10-31 02:57:00,
2013-10-30 23:00:00,56.3,54.6,29.94,South,180,0.0,1.1,94,0.13,,---,0.21,VWS V14.00,2013-10-31 03:00:00,
2013-10-30 23:05:00,56.3,54.9,29.94,ENE,68,0.0,0.0,95,0.17,,---,0.25,VWS V14.00,2013-10-31 03:05:00,
2013-10-30 23:10:00,56.3,55.2,29.94,South,180,0.0,0.0,96,0.17,,---,0.25,VWS V14.00,2013-10-31 03:10:00,
2013-10-30 23:15:00,56.3,54.9,29.94,North,0,0.0,3.1,95,0.17,,---,0.25,VWS V14.00,2013-10-31 03:15:00,
2013-10-30 23:20:00,56.3,55.2,29.88,South,180,0.0,0.0,96,0.21,,---,0.29,VWS V14.00,2013-10-31 03:20:00,
2013-10-30 23:25:00,56.3,54.9,29.88,South,180,0.0,0.0,95,0.21,,---,0.29,VWS V14.00,2013-10-31 03:25:00,
2013-10-30 23:30:00,56.3,54.9,29.88,SSW,202,0.0,0.0,95,0.21,,---,0.29,VWS V14.00,2013-10-31 03:30:00,
2013-10-30 23:35:00,56.3,54.9,29.88,South,180,0.0,0.0,95,0.17,,---,0.29,VWS V14.00,2013-10-31 03:35:00,
2013-10-30 23:41:00,56.3,54.9,29.88,South,180,0.9,0.9,95,0.21,,---,0.33,VWS V14.00,2013-10-31 03:41:00,
2013-10-30 23:46:00,56.5,55.1,29.88,South,180,0.0,2.5,95,0.21,,---,0.33,VWS V14.00,2013-10-31 03:46:00,
2013-10-30 23:51:00,56.5,55.1,29.88,South,180,0.0,0.9,95,0.21,,---,0.37,VWS V14.00,2013-10-31 03:51:00,
2013-10-30 23:56:00,56.5,55.1,29.88,SSW,202,0.0,0.0,95,0.21,,---,0.37,VWS V14.00,2013-10-31 03:56:00,